sensor_id;sensor_type;location;lat;lon;timestamp;P1;durP1;ratioP1;P2;durP2;ratioP2
80140;SDS011;69468;48.356;16.318;2023-05-07T00:00:07;3.13;;;2.40;;
80140;SDS011;69468;48.356;16.318;2023-05-07T00:02:33;6.57;;;2.80;;
80140;SDS011;69468;48.356;16.318;2023-05-07T00:04:59;3.97;;;2.60;;
80140;SDS011;69468;48.356;16.318;2023-05-07T00:07:24;3.83;;;2.40;;
80140;SDS011;69468;48.356;16.318;2023-05-07T00:09:49;3.60;;;2.27;;
80140;SDS011;69468;48.356;16.318;2023-05-07T00:12:15;3.27;;;2.17;;
80140;SDS011;69468;48.356;16.318;2023-05-07T00:14:40;3.37;;;2.20;;
80140;SDS011;69468;48.356;16.318;2023-05-07T00:17:06;3.87;;;2.40;;
80140;SDS011;69468;48.356;16.318;2023-05-07T00:19:31;3.40;;;2.50;;
80140;SDS011;69468;48.356;16.318;2023-05-07T00:21:57;3.30;;;2.20;;
80140;SDS011;69468;48.356;16.318;2023-05-07T00:24:23;5.07;;;2.50;;
80140;SDS011;69468;48.356;16.318;2023-05-07T00:26:48;6.07;;;2.10;;
80140;SDS011;69468;48.356;16.318;2023-05-07T00:29:14;3.47;;;2.30;;
80140;SDS011;69468;48.356;16.318;2023-05-07T00:31:39;3.27;;;2.27;;
80140;SDS011;69468;48.356;16.318;2023-05-07T00:34:05;5.17;;;2.43;;
80140;SDS011;69468;48.356;16.318;2023-05-07T00:36:31;3.93;;;2.53;;
80140;SDS011;69468;48.356;16.318;2023-05-07T00:38:57;4.00;;;2.50;;
80140;SDS011;69468;48.356;16.318;2023-05-07T00:41:25;4.43;;;2.40;;
80140;SDS011;69468;48.356;16.318;2023-05-07T00:43:50;4.50;;;2.30;;
80140;SDS011;69468;48.356;16.318;2023-05-07T00:46:16;4.05;;;2.42;;
80140;SDS011;69468;48.356;16.318;2023-05-07T00:48:42;4.67;;;2.63;;
80140;SDS011;69468;48.356;16.318;2023-05-07T00:51:07;2.70;;;1.80;;
80140;SDS011;69468;48.356;16.318;2023-05-07T00:53:33;6.63;;;1.97;;
80140;SDS011;69468;48.356;16.318;2023-05-07T00:55:59;3.42;;;2.17;;
80140;SDS011;69468;48.356;16.318;2023-05-07T00:58:25;3.53;;;2.20;;
80140;SDS011;69468;48.356;16.318;2023-05-07T01:00:51;2.50;;;2.20;;
80140;SDS011;69468;48.356;16.318;2023-05-07T01:03:16;5.60;;;2.60;;
80140;SDS011;69468;48.356;16.318;2023-05-07T01:05:42;3.73;;;2.23;;
80140;SDS011;69468;48.356;16.318;2023-05-07T01:08:08;3.50;;;2.80;;
80140;SDS011;69468;48.356;16.318;2023-05-07T01:10:33;3.63;;;2.57;;
80140;SDS011;69468;48.356;16.318;2023-05-07T01:12:59;5.15;;;2.63;;
80140;SDS011;69468;48.356;16.318;2023-05-07T01:15:25;5.37;;;2.70;;
80140;SDS011;69468;48.356;16.318;2023-05-07T01:17:50;3.83;;;2.67;;
80140;SDS011;69468;48.356;16.318;2023-05-07T01:20:17;4.33;;;2.83;;
80140;SDS011;69468;48.356;16.318;2023-05-07T01:22:43;5.75;;;2.90;;
80140;SDS011;69468;48.356;16.318;2023-05-07T01:25:08;4.10;;;3.00;;
80140;SDS011;69468;48.356;16.318;2023-05-07T01:27:34;3.50;;;2.50;;
80140;SDS011;69468;48.356;16.318;2023-05-07T01:30:01;5.47;;;2.80;;
80140;SDS011;69468;48.356;16.318;2023-05-07T01:32:28;5.50;;;2.50;;
80140;SDS011;69468;48.356;16.318;2023-05-07T01:35:01;4.03;;;2.70;;
80140;SDS011;69468;48.356;16.318;2023-05-07T01:37:27;4.88;;;2.50;;
80140;SDS011;69468;48.356;16.318;2023-05-07T01:39:53;4.47;;;2.87;;
80140;SDS011;69468;48.356;16.318;2023-05-07T01:42:19;3.72;;;2.50;;
80140;SDS011;69468;48.356;16.318;2023-05-07T01:44:44;4.63;;;2.63;;
80140;SDS011;69468;48.356;16.318;2023-05-07T01:47:10;6.05;;;2.42;;
80140;SDS011;69468;48.356;16.318;2023-05-07T01:49:35;4.37;;;2.57;;
80140;SDS011;69468;48.356;16.318;2023-05-07T01:52:01;5.20;;;2.50;;
80140;SDS011;69468;48.356;16.318;2023-05-07T01:54:26;3.25;;;2.28;;
80140;SDS011;69468;48.356;16.318;2023-05-07T01:56:58;4.53;;;2.70;;
80140;SDS011;69468;48.356;16.318;2023-05-07T01:59:25;4.30;;;2.90;;
80140;SDS011;69468;48.356;16.318;2023-05-07T02:01:50;4.55;;;2.80;;
80140;SDS011;69468;48.356;16.318;2023-05-07T02:04:16;3.53;;;2.67;;
80140;SDS011;69468;48.356;16.318;2023-05-07T02:06:42;3.80;;;2.70;;
80140;SDS011;69468;48.356;16.318;2023-05-07T02:09:07;6.10;;;3.10;;
80140;SDS011;69468;48.356;16.318;2023-05-07T02:11:33;4.68;;;2.80;;
80140;SDS011;69468;48.356;16.318;2023-05-07T02:13:59;4.50;;;3.03;;
80140;SDS011;69468;48.356;16.318;2023-05-07T02:16:24;4.50;;;2.90;;
80140;SDS011;69468;48.356;16.318;2023-05-07T02:18:50;4.75;;;3.10;;
80140;SDS011;69468;48.356;16.318;2023-05-07T02:21:15;4.20;;;2.93;;
80140;SDS011;69468;48.356;16.318;2023-05-07T02:23:40;4.50;;;3.50;;
80140;SDS011;69468;48.356;16.318;2023-05-07T02:26:06;6.07;;;3.28;;
80140;SDS011;69468;48.356;16.318;2023-05-07T02:28:31;5.07;;;3.37;;
80140;SDS011;69468;48.356;16.318;2023-05-07T02:30:57;4.97;;;3.35;;
80140;SDS011;69468;48.356;16.318;2023-05-07T02:33:23;5.68;;;3.67;;
80140;SDS011;69468;48.356;16.318;2023-05-07T02:35:49;6.23;;;4.07;;
80140;SDS011;69468;48.356;16.318;2023-05-07T02:38:14;6.17;;;4.50;;
80140;SDS011;69468;48.356;16.318;2023-05-07T02:40:40;6.78;;;4.40;;
80140;SDS011;69468;48.356;16.318;2023-05-07T02:43:05;8.02;;;4.60;;
80140;SDS011;69468;48.356;16.318;2023-05-07T02:45:31;6.63;;;4.75;;
80140;SDS011;69468;48.356;16.318;2023-05-07T02:47:57;6.00;;;4.40;;
80140;SDS011;69468;48.356;16.318;2023-05-07T02:50:23;8.27;;;5.20;;
80140;SDS011;69468;48.356;16.318;2023-05-07T02:52:48;6.33;;;4.97;;
80140;SDS011;69468;48.356;16.318;2023-05-07T15:33:23;4.03;;;2.17;;
80140;SDS011;69468;48.356;16.318;2023-05-07T15:35:49;3.43;;;2.50;;
80140;SDS011;69468;48.356;16.318;2023-05-07T15:38:15;3.70;;;2.60;;
80140;SDS011;69468;48.356;16.318;2023-05-07T15:40:40;3.57;;;2.33;;
80140;SDS011;69468;48.356;16.318;2023-05-07T15:43:09;2.97;;;2.28;;
80140;SDS011;69468;48.356;16.318;2023-05-07T15:45:38;4.37;;;2.47;;
80140;SDS011;69468;48.356;16.318;2023-05-07T15:48:05;2.72;;;2.15;;
80140;SDS011;69468;48.356;16.318;2023-05-07T15:50:31;3.17;;;2.20;;
80140;SDS011;69468;48.356;16.318;2023-05-07T15:52:57;2.67;;;2.27;;
80140;SDS011;69468;48.356;16.318;2023-05-07T15:55:22;3.43;;;2.40;;
80140;SDS011;69468;48.356;16.318;2023-05-07T15:57:48;4.40;;;2.63;;
80140;SDS011;69468;48.356;16.318;2023-05-07T16:00:13;4.73;;;2.73;;
80140;SDS011;69468;48.356;16.318;2023-05-07T16:02:40;3.72;;;2.83;;
80140;SDS011;69468;48.356;16.318;2023-05-07T16:05:06;4.13;;;2.60;;
80140;SDS011;69468;48.356;16.318;2023-05-07T16:07:38;3.35;;;2.60;;
80140;SDS011;69468;48.356;16.318;2023-05-07T16:10:05;5.10;;;3.70;;
80140;SDS011;69468;48.356;16.318;2023-05-07T16:12:32;5.65;;;2.75;;
80140;SDS011;69468;48.356;16.318;2023-05-07T16:14:57;5.07;;;3.33;;
80140;SDS011;69468;48.356;16.318;2023-05-07T16:17:23;4.70;;;3.33;;
80140;SDS011;69468;48.356;16.318;2023-05-07T16:19:49;3.77;;;2.67;;
80140;SDS011;69468;48.356;16.318;2023-05-07T16:22:15;4.00;;;3.10;;
80140;SDS011;69468;48.356;16.318;2023-05-07T16:24:41;5.97;;;3.53;;
80140;SDS011;69468;48.356;16.318;2023-05-07T16:27:06;4.27;;;3.17;;
80140;SDS011;69468;48.356;16.318;2023-05-07T16:29:31;4.23;;;2.97;;
80140;SDS011;69468;48.356;16.318;2023-05-07T16:31:57;4.63;;;3.33;;
80140;SDS011;69468;48.356;16.318;2023-05-07T16:34:22;6.13;;;3.20;;
80140;SDS011;69468;48.356;16.318;2023-05-07T16:36:48;5.20;;;3.37;;
80140;SDS011;69468;48.356;16.318;2023-05-07T16:39:13;4.27;;;3.20;;
80140;SDS011;69468;48.356;16.318;2023-05-07T16:41:39;4.80;;;3.43;;
80140;SDS011;69468;48.356;16.318;2023-05-07T16:44:04;5.83;;;3.23;;
80140;SDS011;69468;48.356;16.318;2023-05-07T16:46:30;4.77;;;3.27;;
80140;SDS011;69468;48.356;16.318;2023-05-07T16:48:56;5.13;;;3.28;;
80140;SDS011;69468;48.356;16.318;2023-05-07T16:51:21;6.77;;;3.90;;
80140;SDS011;69468;48.356;16.318;2023-05-07T16:53:48;4.38;;;3.10;;
80140;SDS011;69468;48.356;16.318;2023-05-07T16:56:14;4.27;;;3.03;;
80140;SDS011;69468;48.356;16.318;2023-05-07T16:58:39;4.30;;;3.27;;
80140;SDS011;69468;48.356;16.318;2023-05-07T17:01:05;4.57;;;3.33;;
80140;SDS011;69468;48.356;16.318;2023-05-07T17:03:31;3.73;;;2.37;;
80140;SDS011;69468;48.356;16.318;2023-05-07T17:05:56;4.80;;;3.40;;
80140;SDS011;69468;48.356;16.318;2023-05-07T17:08:24;4.97;;;3.23;;
80140;SDS011;69468;48.356;16.318;2023-05-07T17:10:50;4.70;;;2.90;;
80140;SDS011;69468;48.356;16.318;2023-05-07T17:13:15;4.97;;;3.50;;
80140;SDS011;69468;48.356;16.318;2023-05-07T17:15:40;5.83;;;3.53;;
80140;SDS011;69468;48.356;16.318;2023-05-07T17:18:07;4.55;;;3.33;;
80140;SDS011;69468;48.356;16.318;2023-05-07T17:20:33;5.80;;;3.50;;
80140;SDS011;69468;48.356;16.318;2023-05-07T17:23:00;4.47;;;3.00;;
80140;SDS011;69468;48.356;16.318;2023-05-07T17:25:25;4.80;;;3.60;;
80140;SDS011;69468;48.356;16.318;2023-05-07T17:27:50;4.20;;;3.30;;
80140;SDS011;69468;48.356;16.318;2023-05-07T17:30:16;4.50;;;3.37;;
80140;SDS011;69468;48.356;16.318;2023-05-07T17:32:41;3.83;;;2.47;;
80140;SDS011;69468;48.356;16.318;2023-05-07T17:35:07;3.73;;;2.47;;
80140;SDS011;69468;48.356;16.318;2023-05-07T17:37:32;4.83;;;3.13;;
80140;SDS011;69468;48.356;16.318;2023-05-07T17:39:58;3.70;;;2.70;;
80140;SDS011;69468;48.356;16.318;2023-05-07T17:42:24;4.13;;;3.10;;
80140;SDS011;69468;48.356;16.318;2023-05-07T17:44:49;3.97;;;2.90;;
80140;SDS011;69468;48.356;16.318;2023-05-07T17:47:15;5.00;;;3.22;;
80140;SDS011;69468;48.356;16.318;2023-05-07T17:49:40;3.73;;;2.73;;
80140;SDS011;69468;48.356;16.318;2023-05-07T17:52:06;4.30;;;3.30;;
80140;SDS011;69468;48.356;16.318;2023-05-07T17:54:32;5.32;;;3.00;;
80140;SDS011;69468;48.356;16.318;2023-05-07T17:56:58;3.57;;;2.77;;
80140;SDS011;69468;48.356;16.318;2023-05-07T17:59:23;5.87;;;3.20;;
80140;SDS011;69468;48.356;16.318;2023-05-07T18:01:48;4.50;;;2.80;;
80140;SDS011;69468;48.356;16.318;2023-05-07T18:04:14;5.43;;;3.10;;
80140;SDS011;69468;48.356;16.318;2023-05-07T18:06:39;4.77;;;3.43;;
80140;SDS011;69468;48.356;16.318;2023-05-07T18:09:06;3.45;;;2.47;;
80140;SDS011;69468;48.356;16.318;2023-05-07T18:11:31;4.00;;;2.70;;
80140;SDS011;69468;48.356;16.318;2023-05-07T18:13:57;3.47;;;2.40;;
80140;SDS011;69468;48.356;16.318;2023-05-07T18:16:23;3.13;;;1.97;;
80140;SDS011;69468;48.356;16.318;2023-05-07T18:18:48;3.80;;;2.80;;
80140;SDS011;69468;48.356;16.318;2023-05-07T18:21:14;3.60;;;2.60;;
80140;SDS011;69468;48.356;16.318;2023-05-07T18:23:46;4.15;;;3.08;;
80140;SDS011;69468;48.356;16.318;2023-05-07T18:26:12;4.35;;;3.17;;
80140;SDS011;69468;48.356;16.318;2023-05-07T18:28:37;4.30;;;3.30;;
80140;SDS011;69468;48.356;16.318;2023-05-07T18:31:03;3.20;;;2.50;;
80140;SDS011;69468;48.356;16.318;2023-05-07T18:33:29;5.30;;;3.42;;
80140;SDS011;69468;48.356;16.318;2023-05-07T18:35:55;5.28;;;3.50;;
80140;SDS011;69468;48.356;16.318;2023-05-07T18:38:20;4.32;;;3.15;;
80140;SDS011;69468;48.356;16.318;2023-05-07T18:40:45;5.95;;;3.58;;
80140;SDS011;69468;48.356;16.318;2023-05-07T18:43:11;4.80;;;3.08;;
80140;SDS011;69468;48.356;16.318;2023-05-07T18:45:37;5.53;;;3.20;;
80140;SDS011;69468;48.356;16.318;2023-05-07T18:48:02;4.30;;;3.00;;
80140;SDS011;69468;48.356;16.318;2023-05-07T18:50:28;5.13;;;3.63;;
80140;SDS011;69468;48.356;16.318;2023-05-07T18:52:54;4.97;;;3.63;;
80140;SDS011;69468;48.356;16.318;2023-05-07T18:55:20;4.60;;;3.35;;
80140;SDS011;69468;48.356;16.318;2023-05-07T18:57:46;6.32;;;4.40;;
80140;SDS011;69468;48.356;16.318;2023-05-07T19:00:12;5.82;;;3.53;;
80140;SDS011;69468;48.356;16.318;2023-05-07T19:02:38;5.07;;;3.60;;
80140;SDS011;69468;48.356;16.318;2023-05-07T19:05:03;6.40;;;4.13;;
80140;SDS011;69468;48.356;16.318;2023-05-07T19:07:29;4.85;;;3.53;;
80140;SDS011;69468;48.356;16.318;2023-05-07T19:09:55;6.18;;;4.03;;
80140;SDS011;69468;48.356;16.318;2023-05-07T19:12:20;5.82;;;3.83;;
80140;SDS011;69468;48.356;16.318;2023-05-07T19:14:46;5.90;;;4.40;;
80140;SDS011;69468;48.356;16.318;2023-05-07T19:17:12;6.60;;;4.78;;
80140;SDS011;69468;48.356;16.318;2023-05-07T19:19:37;7.43;;;4.87;;
80140;SDS011;69468;48.356;16.318;2023-05-07T19:22:03;7.03;;;5.05;;
80140;SDS011;69468;48.356;16.318;2023-05-07T19:24:28;6.63;;;4.38;;
80140;SDS011;69468;48.356;16.318;2023-05-07T19:26:53;6.55;;;4.57;;
80140;SDS011;69468;48.356;16.318;2023-05-07T19:29:19;7.78;;;4.72;;
80140;SDS011;69468;48.356;16.318;2023-05-07T19:31:44;6.30;;;4.90;;
80140;SDS011;69468;48.356;16.318;2023-05-07T19:34:10;7.78;;;5.10;;
80140;SDS011;69468;48.356;16.318;2023-05-07T19:36:37;11.52;;;5.20;;
80140;SDS011;69468;48.356;16.318;2023-05-07T19:39:03;11.77;;;6.00;;
80140;SDS011;69468;48.356;16.318;2023-05-07T19:41:28;8.82;;;5.10;;
80140;SDS011;69468;48.356;16.318;2023-05-07T19:43:54;10.48;;;6.22;;
80140;SDS011;69468;48.356;16.318;2023-05-07T19:46:19;8.77;;;5.70;;
80140;SDS011;69468;48.356;16.318;2023-05-07T19:48:44;8.02;;;5.65;;
80140;SDS011;69468;48.356;16.318;2023-05-07T19:51:10;11.10;;;6.75;;
80140;SDS011;69468;48.356;16.318;2023-05-07T19:53:35;10.82;;;5.55;;
80140;SDS011;69468;48.356;16.318;2023-05-07T19:56:02;10.93;;;7.15;;
80140;SDS011;69468;48.356;16.318;2023-05-07T19:58:28;11.30;;;7.07;;
80140;SDS011;69468;48.356;16.318;2023-05-07T20:00:53;10.00;;;6.50;;
80140;SDS011;69468;48.356;16.318;2023-05-07T20:03:18;9.32;;;5.47;;
80140;SDS011;69468;48.356;16.318;2023-05-07T20:05:47;10.75;;;7.28;;
80140;SDS011;69468;48.356;16.318;2023-05-07T20:08:13;11.25;;;7.45;;
80140;SDS011;69468;48.356;16.318;2023-05-07T20:10:38;11.32;;;6.47;;
80140;SDS011;69468;48.356;16.318;2023-05-07T20:13:04;11.48;;;7.28;;
80140;SDS011;69468;48.356;16.318;2023-05-07T20:15:29;12.23;;;6.40;;
80140;SDS011;69468;48.356;16.318;2023-05-07T20:17:54;13.38;;;8.02;;
80140;SDS011;69468;48.356;16.318;2023-05-07T20:20:20;11.85;;;7.70;;
80140;SDS011;69468;48.356;16.318;2023-05-07T20:22:45;12.07;;;7.93;;
80140;SDS011;69468;48.356;16.318;2023-05-07T20:25:11;11.95;;;7.05;;
80140;SDS011;69468;48.356;16.318;2023-05-07T20:27:39;10.43;;;6.28;;
80140;SDS011;69468;48.356;16.318;2023-05-07T20:30:06;8.10;;;5.47;;
80140;SDS011;69468;48.356;16.318;2023-05-07T20:32:31;10.88;;;5.97;;
80140;SDS011;69468;48.356;16.318;2023-05-07T20:34:57;12.52;;;7.88;;
80140;SDS011;69468;48.356;16.318;2023-05-07T20:37:22;10.35;;;5.88;;
80140;SDS011;69468;48.356;16.318;2023-05-07T20:39:49;12.68;;;6.95;;
80140;SDS011;69468;48.356;16.318;2023-05-07T20:42:14;10.23;;;6.32;;
80140;SDS011;69468;48.356;16.318;2023-05-07T20:44:40;10.68;;;7.40;;
80140;SDS011;69468;48.356;16.318;2023-05-07T20:47:05;9.05;;;5.50;;
80140;SDS011;69468;48.356;16.318;2023-05-07T20:49:31;9.50;;;6.03;;
80140;SDS011;69468;48.356;16.318;2023-05-07T20:51:56;13.88;;;8.60;;
80140;SDS011;69468;48.356;16.318;2023-05-07T20:54:22;14.10;;;7.93;;
80140;SDS011;69468;48.356;16.318;2023-05-07T21:30:24;10.00;;;6.45;;
80140;SDS011;69468;48.356;16.318;2023-05-07T21:32:50;12.90;;;8.13;;
80140;SDS011;69468;48.356;16.318;2023-05-07T21:35:16;12.65;;;7.75;;
80140;SDS011;69468;48.356;16.318;2023-05-07T21:37:42;12.68;;;8.50;;
80140;SDS011;69468;48.356;16.318;2023-05-07T21:40:07;13.32;;;8.35;;
80140;SDS011;69468;48.356;16.318;2023-05-07T21:42:33;12.93;;;8.15;;
80140;SDS011;69468;48.356;16.318;2023-05-07T21:44:58;12.07;;;7.65;;
80140;SDS011;69468;48.356;16.318;2023-05-07T21:47:24;12.63;;;8.20;;
80140;SDS011;69468;48.356;16.318;2023-05-07T21:49:49;12.63;;;8.35;;
80140;SDS011;69468;48.356;16.318;2023-05-07T21:52:15;13.45;;;8.20;;
80140;SDS011;69468;48.356;16.318;2023-05-07T21:54:41;13.93;;;7.85;;
80140;SDS011;69468;48.356;16.318;2023-05-07T21:57:06;12.13;;;8.68;;
80140;SDS011;69468;48.356;16.318;2023-05-07T21:59:31;13.43;;;8.73;;
80140;SDS011;69468;48.356;16.318;2023-05-07T22:01:58;12.75;;;8.60;;
80140;SDS011;69468;48.356;16.318;2023-05-07T22:04:24;13.25;;;8.40;;
80140;SDS011;69468;48.356;16.318;2023-05-07T22:06:49;10.80;;;6.72;;
80140;SDS011;69468;48.356;16.318;2023-05-07T22:09:15;10.93;;;7.07;;
80140;SDS011;69468;48.356;16.318;2023-05-07T22:11:41;11.02;;;7.43;;
80140;SDS011;69468;48.356;16.318;2023-05-07T22:14:06;12.00;;;7.65;;
80140;SDS011;69468;48.356;16.318;2023-05-07T22:16:31;14.18;;;8.32;;
80140;SDS011;69468;48.356;16.318;2023-05-07T22:18:57;12.50;;;7.80;;
80140;SDS011;69468;48.356;16.318;2023-05-07T22:21:22;11.13;;;7.40;;
80140;SDS011;69468;48.356;16.318;2023-05-07T22:23:48;11.73;;;7.47;;
80140;SDS011;69468;48.356;16.318;2023-05-07T22:26:13;11.43;;;7.32;;
80140;SDS011;69468;48.356;16.318;2023-05-07T22:28:39;10.52;;;7.03;;
80140;SDS011;69468;48.356;16.318;2023-05-07T22:31:04;10.50;;;6.35;;
80140;SDS011;69468;48.356;16.318;2023-05-07T22:33:29;11.20;;;6.68;;
80140;SDS011;69468;48.356;16.318;2023-05-07T22:35:55;16.30;;;6.75;;
80140;SDS011;69468;48.356;16.318;2023-05-07T22:38:23;9.75;;;6.32;;
80140;SDS011;69468;48.356;16.318;2023-05-07T22:41:01;7.07;;;4.32;;
80140;SDS011;69468;48.356;16.318;2023-05-07T22:43:27;7.22;;;4.93;;
80140;SDS011;69468;48.356;16.318;2023-05-07T22:46:01;7.80;;;5.45;;
80140;SDS011;69468;48.356;16.318;2023-05-07T22:48:29;7.65;;;5.35;;
80140;SDS011;69468;48.356;16.318;2023-05-07T22:50:56;12.65;;;6.55;;
80140;SDS011;69468;48.356;16.318;2023-05-07T22:53:21;9.48;;;5.63;;
80140;SDS011;69468;48.356;16.318;2023-05-07T22:55:47;10.18;;;5.90;;
80140;SDS011;69468;48.356;16.318;2023-05-07T22:58:12;8.35;;;5.38;;
80140;SDS011;69468;48.356;16.318;2023-05-07T23:00:38;8.15;;;5.70;;
80140;SDS011;69468;48.356;16.318;2023-05-07T23:03:03;8.35;;;6.03;;
80140;SDS011;69468;48.356;16.318;2023-05-07T23:05:28;10.32;;;6.47;;
80140;SDS011;69468;48.356;16.318;2023-05-07T23:07:54;10.52;;;6.50;;
80140;SDS011;69468;48.356;16.318;2023-05-07T23:10:20;12.05;;;6.32;;
80140;SDS011;69468;48.356;16.318;2023-05-07T23:12:45;9.52;;;6.32;;
80140;SDS011;69468;48.356;16.318;2023-05-07T23:15:14;9.68;;;6.15;;
80140;SDS011;69468;48.356;16.318;2023-05-07T23:17:44;11.52;;;6.50;;
80140;SDS011;69468;48.356;16.318;2023-05-07T23:20:10;9.45;;;6.35;;
80140;SDS011;69468;48.356;16.318;2023-05-07T23:22:36;7.70;;;5.45;;
80140;SDS011;69468;48.356;16.318;2023-05-07T23:25:04;9.25;;;6.90;;
80140;SDS011;69468;48.356;16.318;2023-05-07T23:27:30;9.82;;;6.05;;
80140;SDS011;69468;48.356;16.318;2023-05-07T23:29:56;7.95;;;5.93;;
80140;SDS011;69468;48.356;16.318;2023-05-07T23:32:24;10.40;;;6.38;;
80140;SDS011;69468;48.356;16.318;2023-05-07T23:34:50;10.77;;;7.00;;
80140;SDS011;69468;48.356;16.318;2023-05-07T23:37:17;8.15;;;5.63;;
80140;SDS011;69468;48.356;16.318;2023-05-07T23:39:43;7.82;;;5.20;;
80140;SDS011;69468;48.356;16.318;2023-05-07T23:42:08;8.98;;;6.18;;
80140;SDS011;69468;48.356;16.318;2023-05-07T23:44:34;8.50;;;5.60;;
80140;SDS011;69468;48.356;16.318;2023-05-07T23:46:59;7.38;;;5.13;;
80140;SDS011;69468;48.356;16.318;2023-05-07T23:49:25;8.05;;;5.55;;
80140;SDS011;69468;48.356;16.318;2023-05-07T23:51:50;9.88;;;5.10;;
80140;SDS011;69468;48.356;16.318;2023-05-07T23:54:15;7.60;;;5.07;;
80140;SDS011;69468;48.356;16.318;2023-05-07T23:56:41;8.40;;;5.30;;
80140;SDS011;69468;48.356;16.318;2023-05-07T23:59:07;8.48;;;5.63;;
